createdAt,value
2018-07-15T00:02:13.192Z,54.10
2018-07-15T00:05:38.019Z,54.86
2018-07-15T00:09:03.098Z,55.15
2018-07-15T00:12:27.073Z,54.95
2018-07-15T00:15:51.144Z,54.92
2018-07-15T00:19:15.943Z,55.80
2018-07-15T00:22:39.888Z,56.42
2018-07-15T00:26:03.731Z,55.28
2018-07-15T00:29:27.723Z,55.91
2018-07-15T00:32:51.651Z,56.43
2018-07-15T00:36:15.512Z,56.35
2018-07-15T00:39:39.484Z,56.82
2018-07-15T00:43:04.111Z,56.78
2018-07-15T00:46:28.866Z,56.04
2018-07-15T00:49:52.478Z,55.76
2018-07-15T00:53:16.338Z,57.12
2018-07-15T00:56:40.312Z,56.92
2018-07-15T01:00:04.326Z,57.39
2018-07-15T01:03:28.350Z,56.59
2018-07-15T01:07:02.357Z,57.56
2018-07-15T01:10:25.976Z,56.56
2018-07-15T01:13:50.433Z,57.11
2018-07-15T01:17:14.328Z,57.88
2018-07-15T01:20:38.286Z,57.28
2018-07-15T01:24:02.319Z,58.24
2018-07-15T01:27:26.227Z,57.56
2018-07-15T01:30:50.235Z,58.47
2018-07-15T01:34:14.185Z,60.58
2018-07-15T01:37:38.107Z,61.14
2018-07-15T01:41:02.006Z,61.71
2018-07-15T01:44:26.749Z,61.53
2018-07-15T01:47:51.619Z,60.82
2018-07-15T01:51:16.421Z,60.61
2018-07-15T01:54:41.240Z,59.88
2018-07-15T01:58:06.128Z,58.99
2018-07-15T02:01:30.817Z,58.61
2018-07-15T02:04:55.644Z,58.15
2018-07-15T02:08:20.438Z,58.11
2018-07-15T02:11:44.811Z,57.09
2018-07-15T02:15:09.596Z,58.31
2018-07-15T02:18:34.325Z,57.74
2018-07-15T02:21:59.135Z,57.51
2018-07-15T02:25:23.887Z,57.53
2018-07-15T02:28:48.848Z,56.85
2018-07-15T02:32:13.676Z,55.87
2018-07-15T02:35:38.400Z,56.19
2018-07-15T02:39:03.284Z,55.00
2018-07-15T02:42:28.027Z,55.40
2018-07-15T02:45:52.745Z,54.42
2018-07-15T02:49:17.243Z,54.20
2018-07-15T02:52:41.893Z,54.29
2018-07-15T02:56:06.992Z,54.93
2018-07-15T02:59:31.623Z,54.91
2018-07-15T03:02:56.501Z,55.27
2018-07-15T03:06:21.129Z,55.43
2018-07-15T03:09:45.788Z,54.29
2018-07-15T03:13:10.475Z,55.29
2018-07-15T03:16:35.268Z,55.28
2018-07-15T03:19:59.922Z,54.97
2018-07-15T03:23:24.601Z,54.47
2018-07-15T03:26:49.253Z,57.66
2018-07-15T03:30:13.960Z,57.41
2018-07-15T03:33:38.777Z,59.70
2018-07-15T03:37:03.538Z,59.36
2018-07-15T03:40:28.209Z,59.87
2018-07-15T03:43:52.534Z,58.41
2018-07-15T03:47:17.212Z,58.06
2018-07-15T03:50:41.893Z,59.00
2018-07-15T03:54:06.569Z,56.46
2018-07-15T03:57:31.265Z,57.38
2018-07-15T04:00:56.022Z,57.44
2018-07-15T04:04:20.763Z,56.96
2018-07-15T04:07:45.471Z,57.65
2018-07-15T04:11:10.204Z,58.19
2018-07-15T04:14:34.869Z,57.92
2018-07-15T04:18:04.482Z,58.26
2018-07-15T04:21:29.170Z,58.06
2018-07-15T04:24:53.801Z,57.31
2018-07-15T04:28:18.470Z,57.58
2018-07-15T04:31:43.144Z,57.34
2018-07-15T04:35:07.537Z,58.40
2018-07-15T04:38:32.223Z,58.62
2018-07-15T04:41:56.946Z,57.30
2018-07-15T04:45:21.407Z,58.00
2018-07-15T04:48:46.140Z,58.16
2018-07-15T04:52:10.800Z,57.76
2018-07-15T04:55:35.708Z,57.84
2018-07-15T04:59:00.418Z,57.46
2018-07-15T05:02:25.085Z,58.16
2018-07-15T05:05:49.800Z,57.21
2018-07-15T05:09:14.482Z,57.08
2018-07-15T05:12:39.195Z,57.92
2018-07-15T05:16:03.978Z,57.90
2018-07-15T05:19:28.782Z,57.83
2018-07-15T05:22:53.539Z,58.85
2018-07-15T05:26:18.308Z,58.45
2018-07-15T05:29:42.975Z,57.38
2018-07-15T05:33:07.731Z,57.35
2018-07-15T05:36:32.459Z,56.97
2018-07-15T05:39:57.252Z,57.32
2018-07-15T05:43:21.951Z,57.86
2018-07-15T05:46:46.721Z,57.24
2018-07-15T05:50:11.513Z,57.28
2018-07-15T05:53:36.191Z,55.69
2018-07-15T05:57:00.883Z,57.35
2018-07-15T06:00:25.273Z,57.93
2018-07-15T06:03:50.127Z,56.81
2018-07-15T06:07:14.927Z,56.17
2018-07-15T06:10:39.345Z,55.84
2018-07-15T06:14:04.119Z,55.82
2018-07-15T06:17:28.818Z,55.35
2018-07-15T06:20:53.462Z,55.24
2018-07-15T06:24:17.865Z,55.77
2018-07-15T06:27:42.552Z,55.00
2018-07-15T06:31:07.326Z,55.07
2018-07-15T06:34:31.986Z,54.44
2018-07-15T06:37:56.637Z,53.69
2018-07-15T06:41:21.259Z,54.09
2018-07-15T06:44:46.039Z,53.14
2018-07-15T06:48:10.754Z,53.51
2018-07-15T06:51:35.513Z,52.75
2018-07-15T06:55:00.210Z,52.99
2018-07-15T06:58:24.922Z,53.07
2018-07-15T07:01:50.017Z,52.00
2018-07-15T07:05:14.860Z,53.50
2018-07-15T07:08:39.570Z,53.67
2018-07-15T07:12:04.465Z,53.10
2018-07-15T07:15:29.395Z,51.85
2018-07-15T07:18:57.448Z,51.46
2018-07-15T07:22:38.242Z,52.31
2018-07-15T07:26:03.327Z,52.50
2018-07-15T07:29:28.071Z,50.39
2018-07-15T07:32:52.840Z,50.76
2018-07-15T07:36:17.555Z,49.82
2018-07-15T07:39:43.008Z,50.20
2018-07-15T07:43:07.792Z,49.88
2018-07-15T07:46:32.485Z,50.35
2018-07-15T07:49:57.210Z,49.61
2018-07-15T07:53:21.962Z,49.14
2018-07-15T07:56:46.641Z,48.64
2018-07-15T08:00:11.327Z,48.79
2018-07-15T08:03:36.156Z,47.74
2018-07-15T08:07:00.874Z,47.67
2018-07-15T08:10:25.559Z,46.40
2018-07-15T08:13:50.789Z,46.57
2018-07-15T08:17:15.243Z,46.60
2018-07-15T08:20:40.748Z,45.54
2018-07-15T08:24:05.569Z,45.50
2018-07-15T08:27:29.959Z,45.10
2018-07-15T08:31:30.482Z,44.35
2018-07-15T08:34:55.323Z,43.23
2018-07-15T08:38:20.026Z,44.67
2018-07-15T08:41:44.721Z,45.00
2018-07-15T08:45:09.419Z,44.53
2018-07-15T08:48:34.157Z,43.58
2018-07-15T08:51:58.860Z,43.21
2018-07-15T08:55:24.233Z,43.77
2018-07-15T08:58:50.365Z,42.47
2018-07-15T09:02:16.977Z,42.77
2018-07-15T09:05:41.845Z,42.87
2018-07-15T09:09:07.115Z,41.79
2018-07-15T09:12:31.832Z,41.84
2018-07-15T09:15:56.520Z,41.79
2018-07-15T09:19:21.185Z,40.99
2018-07-15T09:22:45.903Z,41.97
2018-07-15T09:26:10.671Z,39.93
2018-07-15T09:29:35.422Z,39.54
2018-07-15T09:33:00.222Z,40.36
2018-07-15T09:36:25.141Z,39.17
2018-07-15T09:39:49.830Z,39.70
2018-07-15T09:43:14.515Z,39.03
2018-07-15T09:46:39.914Z,41.06
2018-07-15T09:50:04.698Z,39.79
2018-07-15T09:53:29.347Z,39.43
2018-07-15T09:56:54.047Z,39.40
2018-07-15T10:00:23.716Z,38.89
2018-07-15T10:03:48.549Z,39.03
2018-07-15T10:07:13.261Z,38.18
2018-07-15T10:10:37.748Z,38.18
2018-07-15T10:14:02.397Z,39.62
2018-07-15T10:17:27.119Z,38.19
2018-07-15T10:20:52.047Z,38.37
2018-07-15T10:24:17.021Z,38.86
2018-07-15T10:27:41.608Z,37.01
2018-07-15T10:31:06.732Z,38.53
2018-07-15T10:34:32.265Z,37.49
2018-07-15T10:37:57.351Z,39.38
2018-07-15T10:41:24.420Z,36.69
2018-07-15T10:44:49.515Z,36.53
2018-07-15T10:48:16.169Z,36.90
2018-07-15T10:51:41.145Z,36.53
2018-07-15T10:55:07.088Z,35.21
2018-07-15T10:58:33.038Z,34.05
2018-07-15T11:02:00.708Z,33.60
2018-07-15T11:05:26.019Z,32.45
2018-07-15T11:08:50.515Z,33.09
2018-07-15T11:12:15.327Z,30.83
2018-07-15T11:15:40.008Z,32.48
2018-07-15T11:19:04.760Z,31.48
2018-07-15T11:22:29.235Z,32.14
2018-07-15T11:25:53.570Z,32.39
2018-07-15T11:29:17.906Z,31.69
2018-07-15T11:32:42.282Z,31.40
2018-07-15T11:36:07.785Z,31.05
2018-07-15T11:39:34.452Z,30.69
2018-07-15T11:42:59.764Z,30.60
2018-07-15T11:46:24.180Z,30.47
2018-07-15T11:49:49.404Z,28.60
2018-07-15T11:53:14.104Z,28.72
2018-07-15T11:56:38.901Z,28.33
2018-07-15T12:00:03.670Z,26.81
2018-07-15T12:03:28.322Z,29.87
2018-07-15T12:06:53.274Z,28.86
2018-07-15T12:10:18.280Z,30.25
2018-07-15T12:13:44.158Z,29.75
2018-07-15T12:17:09.104Z,31.28
2018-07-15T12:20:33.884Z,31.44
2018-07-15T12:23:58.622Z,29.76
2018-07-15T12:27:23.330Z,30.20
2018-07-15T12:30:48.172Z,29.75
2018-07-15T12:34:13.083Z,29.99
2018-07-15T12:37:38.035Z,28.45
2018-07-15T12:41:02.746Z,29.95
2018-07-15T12:44:28.848Z,31.00
2018-07-15T12:47:53.890Z,31.46
2018-07-15T12:51:18.750Z,29.94
2018-07-15T12:54:43.594Z,30.41
2018-07-15T12:58:08.371Z,29.01
2018-07-15T13:01:33.092Z,28.75
2018-07-15T13:04:58.143Z,28.41
2018-07-15T13:08:23.005Z,28.63
2018-07-15T13:11:47.862Z,28.39
2018-07-15T13:15:12.395Z,27.75
2018-07-15T13:18:36.771Z,29.86
2018-07-15T13:22:01.760Z,29.98
2018-07-15T13:25:26.521Z,28.94
2018-07-15T13:28:51.365Z,28.87
2018-07-15T13:32:16.124Z,29.19
2018-07-15T13:35:40.857Z,29.07
2018-07-15T13:39:07.429Z,28.46
2018-07-15T13:42:31.998Z,29.32
2018-07-15T13:45:57.056Z,30.08
2018-07-15T13:49:21.840Z,29.57
2018-07-15T13:52:46.565Z,28.85
2018-07-15T13:56:11.016Z,27.98
2018-07-15T13:59:35.807Z,29.92
2018-07-15T14:03:00.750Z,29.23
2018-07-15T14:06:25.394Z,29.39
2018-07-15T14:09:50.072Z,29.02
2018-07-15T14:13:14.732Z,28.97
2018-07-15T14:16:39.451Z,28.07
2018-07-15T14:20:05.424Z,27.40
2018-07-15T14:23:29.839Z,28.15
2018-07-15T14:26:54.776Z,27.61
2018-07-15T14:30:19.707Z,26.48
2018-07-15T14:33:44.614Z,28.51
2018-07-15T14:37:09.373Z,27.43
2018-07-15T14:40:35.009Z,28.64
2018-07-15T14:43:59.787Z,28.43
2018-07-15T14:47:24.551Z,27.82
2018-07-15T14:50:49.255Z,28.05
2018-07-15T14:54:14.043Z,29.93
2018-07-15T14:57:38.790Z,29.98
2018-07-15T15:01:03.435Z,30.73
2018-07-15T15:04:28.120Z,31.84
2018-07-15T15:07:52.836Z,33.17
2018-07-15T15:11:17.630Z,36.54
2018-07-15T15:14:42.169Z,38.93
2018-07-15T15:18:06.631Z,43.95
2018-07-15T15:21:31.135Z,50.40
2018-07-15T15:24:55.946Z,52.10
2018-07-15T15:28:20.675Z,52.09
2018-07-15T15:31:45.476Z,54.54
2018-07-15T15:35:09.922Z,51.38
2018-07-15T15:38:34.699Z,49.90
2018-07-15T15:41:59.495Z,47.31
2018-07-15T15:45:24.218Z,47.96
2018-07-15T15:48:48.981Z,44.22
2018-07-15T15:52:13.695Z,43.46
2018-07-15T15:55:38.605Z,45.46
2018-07-15T15:59:03.039Z,43.38
2018-07-15T16:02:28.005Z,39.80
2018-07-15T16:05:52.383Z,38.49
2018-07-15T16:09:17.414Z,40.51
2018-07-15T16:12:42.062Z,39.18
2018-07-15T16:16:06.711Z,39.96
2018-07-15T16:19:31.021Z,40.48
2018-07-15T16:22:55.684Z,42.53
2018-07-15T16:26:20.663Z,42.69
2018-07-15T16:29:45.341Z,43.07
2018-07-15T16:33:10.189Z,42.71
2018-07-15T16:36:35.013Z,43.45
2018-07-15T16:39:59.380Z,46.45
2018-07-15T16:43:23.836Z,46.81
2018-07-15T16:46:48.676Z,45.87
2018-07-15T16:50:13.388Z,47.21
2018-07-15T16:53:38.105Z,48.09
2018-07-15T16:57:02.540Z,47.60
2018-07-15T17:00:27.657Z,48.23
2018-07-15T17:03:52.440Z,49.23
2018-07-15T17:07:17.866Z,50.41
2018-07-15T17:10:42.725Z,49.89
2018-07-15T17:14:07.527Z,51.30
2018-07-15T17:17:31.898Z,52.62
2018-07-15T17:20:56.494Z,53.04
2018-07-15T17:24:21.179Z,52.39
2018-07-15T17:27:45.890Z,52.08
2018-07-15T17:31:10.770Z,52.47
2018-07-15T17:34:35.464Z,52.64
2018-07-15T17:38:00.149Z,52.49
2018-07-15T17:41:24.878Z,52.42
2018-07-15T17:44:49.529Z,51.71
2018-07-15T17:48:14.346Z,52.28
2018-07-15T17:51:39.063Z,52.82
2018-07-15T17:55:03.825Z,52.89
2018-07-15T17:58:28.666Z,53.33
2018-07-15T18:01:53.315Z,52.75
2018-07-15T18:05:17.969Z,52.17
2018-07-15T18:08:42.839Z,53.52
2018-07-15T18:12:07.633Z,53.25
2018-07-15T18:15:32.329Z,53.21
2018-07-15T18:18:57.202Z,53.51
2018-07-15T18:22:21.990Z,54.34
2018-07-15T18:25:53.315Z,53.72
2018-07-15T18:29:17.655Z,53.99
2018-07-15T18:32:42.882Z,54.28
2018-07-15T18:36:07.799Z,54.38
2018-07-15T18:39:32.603Z,52.34
2018-07-15T18:42:57.308Z,50.16
2018-07-15T18:46:22.300Z,51.49
2018-07-15T18:49:47.104Z,51.01
2018-07-15T18:53:11.953Z,51.75
2018-07-15T18:56:36.924Z,52.54
2018-07-15T19:00:01.721Z,52.74
2018-07-15T19:03:26.399Z,53.67
2018-07-15T19:06:51.168Z,52.83
2018-07-15T19:10:15.859Z,54.12
2018-07-15T19:13:40.932Z,55.01
2018-07-15T19:17:05.831Z,53.79
2018-07-15T19:20:30.658Z,54.77
2018-07-15T19:23:56.058Z,54.85
2018-07-15T19:27:20.820Z,53.71
2018-07-15T19:30:45.564Z,54.41
2018-07-15T19:34:09.937Z,53.79
2018-07-15T19:37:34.271Z,54.21
2018-07-15T19:40:59.003Z,55.29
2018-07-15T19:44:23.963Z,55.92
2018-07-15T19:47:48.729Z,56.33
2018-07-15T19:51:13.430Z,56.98
2018-07-15T19:54:38.112Z,56.45
2018-07-15T19:58:02.810Z,54.35
2018-07-15T20:01:27.779Z,54.51
2018-07-15T20:04:52.462Z,55.61
2018-07-15T20:08:18.165Z,55.95
2018-07-15T20:11:42.923Z,54.71
2018-07-15T20:15:08.673Z,54.43
2018-07-15T20:18:33.455Z,55.11
2018-07-15T20:21:58.808Z,55.43
2018-07-15T20:25:23.600Z,54.87
2018-07-15T20:28:48.263Z,56.01
2018-07-15T20:32:13.565Z,56.22
2018-07-15T20:35:38.897Z,55.93
2018-07-15T20:39:05.551Z,56.61
2018-07-15T20:42:31.119Z,57.82
2018-07-15T20:45:56.646Z,57.84
2018-07-15T20:49:21.843Z,58.69
2018-07-15T20:52:47.344Z,58.85
2018-07-15T20:56:13.071Z,59.11
2018-07-15T20:59:38.363Z,60.01
2018-07-15T21:03:03.684Z,59.71
2018-07-15T21:06:31.183Z,59.80
2018-07-15T21:09:57.091Z,58.68
2018-07-15T21:13:22.241Z,58.42
2018-07-15T21:16:47.482Z,58.65
2018-07-15T21:20:12.641Z,58.97
2018-07-15T21:23:38.329Z,58.22
2018-07-15T21:27:03.546Z,59.56
2018-07-15T21:30:28.880Z,59.55
2018-07-15T21:33:57.424Z,58.38
2018-07-15T21:37:22.495Z,58.64
2018-07-15T21:40:47.543Z,57.91
2018-07-15T21:44:12.722Z,57.75
2018-07-15T21:47:37.902Z,57.80
2018-07-15T21:51:02.699Z,58.06
2018-07-15T21:54:27.396Z,57.97
2018-07-15T21:57:56.092Z,58.22
2018-07-15T22:01:21.470Z,59.21
2018-07-15T22:04:46.937Z,58.99
2018-07-15T22:08:28.927Z,58.55
2018-07-15T22:11:54.263Z,58.94
2018-07-15T22:15:19.309Z,61.27
2018-07-15T22:18:44.057Z,62.66
2018-07-15T22:22:09.023Z,63.05
2018-07-15T22:25:33.781Z,62.52
2018-07-15T22:30:27.555Z,62.17
2018-07-15T22:33:52.274Z,63.66
2018-07-15T22:37:16.643Z,62.64
2018-07-15T22:40:41.440Z,62.33
2018-07-15T22:44:06.070Z,62.07
2018-07-15T22:47:30.837Z,63.01
2018-07-15T22:50:55.669Z,62.62
2018-07-15T22:54:20.522Z,62.45
2018-07-15T22:57:45.270Z,62.29
2018-07-15T23:01:10.154Z,63.02
2018-07-15T23:05:54.370Z,62.04
2018-07-15T23:09:20.445Z,62.56
2018-07-15T23:12:45.547Z,63.63
2018-07-15T23:16:11.156Z,63.19
2018-07-15T23:19:36.486Z,62.17
2018-07-15T23:23:02.524Z,63.60
2018-07-15T23:26:29.109Z,62.77
2018-07-15T23:29:54.184Z,62.92
2018-07-15T23:33:19.237Z,62.28
2018-07-15T23:36:44.139Z,62.35
2018-07-15T23:40:09.115Z,62.74
2018-07-15T23:43:33.684Z,61.84
2018-07-15T23:46:58.805Z,63.10
2018-07-15T23:50:24.093Z,63.15
2018-07-15T23:53:49.944Z,63.74
2018-07-15T23:57:15.014Z,64.68
